sensor_id;sensor_type;location;lat;lon;timestamp;P1;durP1;ratioP1;P2;durP2;ratioP2
20637;SDS011;10478;49.004;8.470;2024-03-07T00:00:06;28.23;;;15.27;;
20637;SDS011;10478;49.004;8.470;2024-03-07T00:02:47;28.63;;;14.85;;
20637;SDS011;10478;49.004;8.470;2024-03-07T00:05:13;29.88;;;15.35;;
20637;SDS011;10478;49.004;8.470;2024-03-07T00:07:39;30.55;;;15.93;;
20637;SDS011;10478;49.004;8.470;2024-03-07T00:10:05;31.10;;;15.60;;
20637;SDS011;10478;49.004;8.470;2024-03-07T00:12:32;34.97;;;16.95;;
20637;SDS011;10478;49.004;8.470;2024-03-07T00:14:58;29.15;;;15.32;;
20637;SDS011;10478;49.004;8.470;2024-03-07T00:17:24;32.47;;;16.27;;
20637;SDS011;10478;49.004;8.470;2024-03-07T00:19:49;28.40;;;15.65;;
20637;SDS011;10478;49.004;8.470;2024-03-07T00:22:14;33.70;;;16.30;;
20637;SDS011;10478;49.004;8.470;2024-03-07T00:24:40;29.75;;;16.15;;
20637;SDS011;10478;49.004;8.470;2024-03-07T00:27:05;30.73;;;16.20;;
20637;SDS011;10478;49.004;8.470;2024-03-07T00:29:31;30.48;;;15.40;;
20637;SDS011;10478;49.004;8.470;2024-03-07T00:32:00;25.00;;;14.90;;
20637;SDS011;10478;49.004;8.470;2024-03-07T00:34:26;29.58;;;15.82;;
20637;SDS011;10478;49.004;8.470;2024-03-07T00:36:51;26.13;;;13.38;;
20637;SDS011;10478;49.004;8.470;2024-03-07T00:39:17;24.05;;;14.32;;
20637;SDS011;10478;49.004;8.470;2024-03-07T00:41:43;26.15;;;14.20;;
20637;SDS011;10478;49.004;8.470;2024-03-07T00:44:08;27.10;;;13.70;;
20637;SDS011;10478;49.004;8.470;2024-03-07T00:46:34;25.60;;;13.02;;
20637;SDS011;10478;49.004;8.470;2024-03-07T00:49:00;26.08;;;13.25;;
20637;SDS011;10478;49.004;8.470;2024-03-07T00:51:26;26.38;;;13.63;;
20637;SDS011;10478;49.004;8.470;2024-03-07T00:53:51;28.35;;;14.85;;
20637;SDS011;10478;49.004;8.470;2024-03-07T00:56:16;23.30;;;12.63;;
20637;SDS011;10478;49.004;8.470;2024-03-07T00:58:42;25.15;;;14.48;;
20637;SDS011;10478;49.004;8.470;2024-03-07T01:01:07;32.15;;;13.98;;
20637;SDS011;10478;49.004;8.470;2024-03-07T01:03:33;32.10;;;15.73;;
20637;SDS011;10478;49.004;8.470;2024-03-07T01:05:58;28.40;;;14.13;;
20637;SDS011;10478;49.004;8.470;2024-03-07T01:08:24;31.67;;;16.42;;
20637;SDS011;10478;49.004;8.470;2024-03-07T01:10:49;31.13;;;17.10;;
20637;SDS011;10478;49.004;8.470;2024-03-07T01:13:14;33.80;;;18.08;;
20637;SDS011;10478;49.004;8.470;2024-03-07T01:15:44;38.53;;;18.27;;
20637;SDS011;10478;49.004;8.470;2024-03-07T01:18:10;33.60;;;19.02;;
20637;SDS011;10478;49.004;8.470;2024-03-07T01:20:35;34.30;;;16.50;;
20637;SDS011;10478;49.004;8.470;2024-03-07T01:23:01;37.45;;;19.17;;
20637;SDS011;10478;49.004;8.470;2024-03-07T01:25:26;37.58;;;19.30;;
20637;SDS011;10478;49.004;8.470;2024-03-07T01:27:52;33.20;;;16.70;;
20637;SDS011;10478;49.004;8.470;2024-03-07T01:30:17;34.13;;;17.25;;
20637;SDS011;10478;49.004;8.470;2024-03-07T01:32:42;38.65;;;18.05;;
20637;SDS011;10478;49.004;8.470;2024-03-07T01:35:08;37.47;;;18.40;;
20637;SDS011;10478;49.004;8.470;2024-03-07T01:37:34;38.17;;;19.60;;
20637;SDS011;10478;49.004;8.470;2024-03-07T01:40:00;45.03;;;20.83;;
20637;SDS011;10478;49.004;8.470;2024-03-07T01:42:25;36.33;;;19.75;;
20637;SDS011;10478;49.004;8.470;2024-03-07T01:44:50;37.50;;;19.77;;
20637;SDS011;10478;49.004;8.470;2024-03-07T01:47:16;38.22;;;19.52;;
20637;SDS011;10478;49.004;8.470;2024-03-07T01:49:42;40.40;;;20.85;;
20637;SDS011;10478;49.004;8.470;2024-03-07T01:52:08;37.95;;;20.83;;
20637;SDS011;10478;49.004;8.470;2024-03-07T01:54:34;37.85;;;18.65;;
20637;SDS011;10478;49.004;8.470;2024-03-07T01:57:00;42.65;;;21.38;;
20637;SDS011;10478;49.004;8.470;2024-03-07T01:59:25;40.17;;;19.77;;
20637;SDS011;10478;49.004;8.470;2024-03-07T02:01:51;38.90;;;19.65;;
20637;SDS011;10478;49.004;8.470;2024-03-07T02:04:17;34.70;;;18.27;;
20637;SDS011;10478;49.004;8.470;2024-03-07T02:06:42;36.42;;;20.23;;
20637;SDS011;10478;49.004;8.470;2024-03-07T02:09:08;39.15;;;20.98;;
20637;SDS011;10478;49.004;8.470;2024-03-07T02:11:33;41.63;;;20.55;;
20637;SDS011;10478;49.004;8.470;2024-03-07T02:13:58;42.22;;;21.17;;
20637;SDS011;10478;49.004;8.470;2024-03-07T02:16:24;42.40;;;20.23;;
20637;SDS011;10478;49.004;8.470;2024-03-07T02:18:49;39.42;;;21.17;;
20637;SDS011;10478;49.004;8.470;2024-03-07T02:21:15;38.60;;;20.85;;
20637;SDS011;10478;49.004;8.470;2024-03-07T02:23:40;45.47;;;20.77;;
20637;SDS011;10478;49.004;8.470;2024-03-07T02:26:06;44.95;;;21.33;;
20637;SDS011;10478;49.004;8.470;2024-03-07T02:28:33;38.88;;;20.48;;
20637;SDS011;10478;49.004;8.470;2024-03-07T02:30:58;45.30;;;21.10;;
20637;SDS011;10478;49.004;8.470;2024-03-07T02:33:24;36.53;;;20.15;;
20637;SDS011;10478;49.004;8.470;2024-03-07T02:35:49;37.78;;;21.38;;
20637;SDS011;10478;49.004;8.470;2024-03-07T02:38:14;45.33;;;22.38;;
20637;SDS011;10478;49.004;8.470;2024-03-07T02:40:40;39.05;;;21.13;;
20637;SDS011;10478;49.004;8.470;2024-03-07T02:43:05;43.75;;;22.33;;
20637;SDS011;10478;49.004;8.470;2024-03-07T02:45:32;49.67;;;22.00;;
20637;SDS011;10478;49.004;8.470;2024-03-07T02:47:57;43.13;;;22.15;;
20637;SDS011;10478;49.004;8.470;2024-03-07T02:50:22;44.00;;;21.58;;
20637;SDS011;10478;49.004;8.470;2024-03-07T02:52:48;42.20;;;20.40;;
20637;SDS011;10478;49.004;8.470;2024-03-07T02:55:14;41.33;;;21.75;;
20637;SDS011;10478;49.004;8.470;2024-03-07T02:57:40;36.67;;;19.92;;
20637;SDS011;10478;49.004;8.470;2024-03-07T03:00:06;50.25;;;22.77;;
20637;SDS011;10478;49.004;8.470;2024-03-07T03:02:44;39.22;;;21.00;;
20637;SDS011;10478;49.004;8.470;2024-03-07T03:05:10;51.88;;;23.50;;
20637;SDS011;10478;49.004;8.470;2024-03-07T03:07:35;44.00;;;21.15;;
20637;SDS011;10478;49.004;8.470;2024-03-07T03:10:01;43.10;;;22.63;;
20637;SDS011;10478;49.004;8.470;2024-03-07T03:12:27;43.63;;;23.38;;
20637;SDS011;10478;49.004;8.470;2024-03-07T03:14:53;46.33;;;22.90;;
20637;SDS011;10478;49.004;8.470;2024-03-07T03:17:18;50.25;;;22.90;;
20637;SDS011;10478;49.004;8.470;2024-03-07T03:19:44;41.55;;;21.65;;
20637;SDS011;10478;49.004;8.470;2024-03-07T03:22:09;43.15;;;20.73;;
20637;SDS011;10478;49.004;8.470;2024-03-07T03:24:34;41.00;;;20.38;;
20637;SDS011;10478;49.004;8.470;2024-03-07T03:27:01;47.25;;;22.30;;
20637;SDS011;10478;49.004;8.470;2024-03-07T03:29:26;43.65;;;21.05;;
20637;SDS011;10478;49.004;8.470;2024-03-07T03:31:53;41.05;;;20.73;;
20637;SDS011;10478;49.004;8.470;2024-03-07T03:34:19;48.85;;;23.25;;
20637;SDS011;10478;49.004;8.470;2024-03-07T03:36:46;53.28;;;25.10;;
20637;SDS011;10478;49.004;8.470;2024-03-07T03:39:11;38.60;;;21.63;;
20637;SDS011;10478;49.004;8.470;2024-03-07T03:41:38;44.80;;;20.73;;
20637;SDS011;10478;49.004;8.470;2024-03-07T03:44:03;40.40;;;21.25;;
20637;SDS011;10478;49.004;8.470;2024-03-07T03:46:28;40.05;;;20.92;;
20637;SDS011;10478;49.004;8.470;2024-03-07T03:48:54;50.05;;;22.55;;
20637;SDS011;10478;49.004;8.470;2024-03-07T03:51:19;43.35;;;20.17;;
20637;SDS011;10478;49.004;8.470;2024-03-07T03:53:46;38.35;;;19.58;;
20637;SDS011;10478;49.004;8.470;2024-03-07T03:56:12;41.40;;;20.30;;
20637;SDS011;10478;49.004;8.470;2024-03-07T03:58:39;40.13;;;21.50;;
20637;SDS011;10478;49.004;8.470;2024-03-07T04:01:04;44.50;;;21.67;;
20637;SDS011;10478;49.004;8.470;2024-03-07T04:03:33;47.92;;;21.02;;
20637;SDS011;10478;49.004;8.470;2024-03-07T04:05:58;42.88;;;21.00;;
20637;SDS011;10478;49.004;8.470;2024-03-07T04:08:24;41.00;;;20.52;;
20637;SDS011;10478;49.004;8.470;2024-03-07T04:10:49;39.53;;;21.23;;
20637;SDS011;10478;49.004;8.470;2024-03-07T04:13:14;44.65;;;22.13;;
20637;SDS011;10478;49.004;8.470;2024-03-07T04:15:39;42.10;;;20.15;;
20637;SDS011;10478;49.004;8.470;2024-03-07T04:18:05;45.03;;;21.67;;
20637;SDS011;10478;49.004;8.470;2024-03-07T04:20:30;46.65;;;23.25;;
20637;SDS011;10478;49.004;8.470;2024-03-07T04:22:55;47.70;;;21.50;;
20637;SDS011;10478;49.004;8.470;2024-03-07T04:25:23;48.13;;;21.58;;
20637;SDS011;10478;49.004;8.470;2024-03-07T04:27:50;42.10;;;21.30;;
20637;SDS011;10478;49.004;8.470;2024-03-07T04:30:16;38.42;;;20.70;;
20637;SDS011;10478;49.004;8.470;2024-03-07T04:32:41;43.42;;;20.75;;
20637;SDS011;10478;49.004;8.470;2024-03-07T04:35:07;40.83;;;20.30;;
20637;SDS011;10478;49.004;8.470;2024-03-07T04:37:33;45.05;;;21.33;;
20637;SDS011;10478;49.004;8.470;2024-03-07T04:40:02;49.72;;;22.48;;
20637;SDS011;10478;49.004;8.470;2024-03-07T04:42:29;51.20;;;21.20;;
20637;SDS011;10478;49.004;8.470;2024-03-07T04:44:55;41.47;;;21.25;;
20637;SDS011;10478;49.004;8.470;2024-03-07T04:47:21;42.33;;;21.33;;
20637;SDS011;10478;49.004;8.470;2024-03-07T04:49:46;40.85;;;21.30;;
20637;SDS011;10478;49.004;8.470;2024-03-07T04:52:11;45.17;;;21.45;;
20637;SDS011;10478;49.004;8.470;2024-03-07T04:54:37;48.28;;;23.67;;
20637;SDS011;10478;49.004;8.470;2024-03-07T04:57:02;41.08;;;21.15;;
20637;SDS011;10478;49.004;8.470;2024-03-07T04:59:28;48.53;;;21.23;;
20637;SDS011;10478;49.004;8.470;2024-03-07T05:01:53;50.58;;;23.17;;
20637;SDS011;10478;49.004;8.470;2024-03-07T05:04:18;44.03;;;21.70;;
20637;SDS011;10478;49.004;8.470;2024-03-07T05:06:44;51.53;;;22.23;;
20637;SDS011;10478;49.004;8.470;2024-03-07T05:09:12;43.03;;;21.45;;
20637;SDS011;10478;49.004;8.470;2024-03-07T05:11:47;43.03;;;20.40;;
20637;SDS011;10478;49.004;8.470;2024-03-07T05:14:13;43.63;;;21.58;;
20637;SDS011;10478;49.004;8.470;2024-03-07T05:16:39;49.17;;;22.75;;
20637;SDS011;10478;49.004;8.470;2024-03-07T05:19:04;44.53;;;21.85;;
20637;SDS011;10478;49.004;8.470;2024-03-07T05:21:30;44.28;;;22.27;;
20637;SDS011;10478;49.004;8.470;2024-03-07T05:24:01;38.17;;;18.77;;
20637;SDS011;10478;49.004;8.470;2024-03-07T05:26:28;39.03;;;21.30;;
20637;SDS011;10478;49.004;8.470;2024-03-07T05:28:53;37.38;;;20.50;;
20637;SDS011;10478;49.004;8.470;2024-03-07T05:31:21;47.38;;;22.30;;
20637;SDS011;10478;49.004;8.470;2024-03-07T05:33:47;45.50;;;21.73;;
20637;SDS011;10478;49.004;8.470;2024-03-07T05:36:12;55.63;;;25.05;;
20637;SDS011;10478;49.004;8.470;2024-03-07T05:38:41;50.38;;;23.77;;
20637;SDS011;10478;49.004;8.470;2024-03-07T05:41:10;46.03;;;22.88;;
20637;SDS011;10478;49.004;8.470;2024-03-07T05:43:36;53.60;;;27.27;;
20637;SDS011;10478;49.004;8.470;2024-03-07T05:46:04;53.40;;;25.80;;
20637;SDS011;10478;49.004;8.470;2024-03-07T05:48:31;50.10;;;21.63;;
20637;SDS011;10478;49.004;8.470;2024-03-07T05:50:57;48.35;;;23.23;;
20637;SDS011;10478;49.004;8.470;2024-03-07T05:53:23;58.63;;;26.98;;
20637;SDS011;10478;49.004;8.470;2024-03-07T05:55:49;45.22;;;22.05;;
20637;SDS011;10478;49.004;8.470;2024-03-07T05:58:14;46.28;;;22.35;;
20637;SDS011;10478;49.004;8.470;2024-03-07T06:00:42;48.60;;;22.60;;
20637;SDS011;10478;49.004;8.470;2024-03-07T06:03:11;49.97;;;24.13;;
20637;SDS011;10478;49.004;8.470;2024-03-07T06:05:38;46.00;;;24.42;;
20637;SDS011;10478;49.004;8.470;2024-03-07T06:08:07;44.88;;;22.50;;
20637;SDS011;10478;49.004;8.470;2024-03-07T06:10:33;46.42;;;21.80;;
20637;SDS011;10478;49.004;8.470;2024-03-07T06:12:58;52.28;;;23.05;;
20637;SDS011;10478;49.004;8.470;2024-03-07T06:15:24;53.05;;;24.55;;
20637;SDS011;10478;49.004;8.470;2024-03-07T06:17:49;45.63;;;24.95;;
20637;SDS011;10478;49.004;8.470;2024-03-07T06:20:14;52.17;;;23.10;;
20637;SDS011;10478;49.004;8.470;2024-03-07T06:22:48;48.63;;;24.27;;
20637;SDS011;10478;49.004;8.470;2024-03-07T06:25:15;48.33;;;23.48;;
20637;SDS011;10478;49.004;8.470;2024-03-07T06:27:45;88.07;;;39.40;;
20637;SDS011;10478;49.004;8.470;2024-03-07T06:30:14;196.65;;;79.45;;
20637;SDS011;10478;49.004;8.470;2024-03-07T06:32:42;65.45;;;32.22;;
20637;SDS011;10478;49.004;8.470;2024-03-07T06:35:08;48.35;;;24.15;;
20637;SDS011;10478;49.004;8.470;2024-03-07T06:37:34;49.17;;;23.55;;
20637;SDS011;10478;49.004;8.470;2024-03-07T06:40:00;51.58;;;23.60;;
20637;SDS011;10478;49.004;8.470;2024-03-07T06:42:25;51.03;;;24.15;;
20637;SDS011;10478;49.004;8.470;2024-03-07T06:44:50;45.38;;;21.75;;
20637;SDS011;10478;49.004;8.470;2024-03-07T06:47:16;47.55;;;22.67;;
20637;SDS011;10478;49.004;8.470;2024-03-07T06:49:41;51.28;;;24.10;;
20637;SDS011;10478;49.004;8.470;2024-03-07T06:52:07;48.58;;;24.25;;
20637;SDS011;10478;49.004;8.470;2024-03-07T06:54:33;48.92;;;23.08;;
20637;SDS011;10478;49.004;8.470;2024-03-07T06:56:58;47.17;;;24.15;;
20637;SDS011;10478;49.004;8.470;2024-03-07T06:59:23;51.13;;;23.73;;
20637;SDS011;10478;49.004;8.470;2024-03-07T07:01:49;46.38;;;22.40;;
20637;SDS011;10478;49.004;8.470;2024-03-07T07:04:14;49.25;;;23.13;;
20637;SDS011;10478;49.004;8.470;2024-03-07T07:06:40;54.92;;;25.00;;
20637;SDS011;10478;49.004;8.470;2024-03-07T07:09:08;53.15;;;22.45;;
20637;SDS011;10478;49.004;8.470;2024-03-07T07:11:34;54.50;;;24.48;;
20637;SDS011;10478;49.004;8.470;2024-03-07T07:13:59;47.72;;;23.77;;
20637;SDS011;10478;49.004;8.470;2024-03-07T07:16:26;50.97;;;24.08;;
20637;SDS011;10478;49.004;8.470;2024-03-07T07:18:52;53.67;;;25.02;;
20637;SDS011;10478;49.004;8.470;2024-03-07T07:21:17;51.25;;;24.40;;
20637;SDS011;10478;49.004;8.470;2024-03-07T07:23:42;51.17;;;24.20;;
20637;SDS011;10478;49.004;8.470;2024-03-07T07:26:08;48.03;;;22.90;;
20637;SDS011;10478;49.004;8.470;2024-03-07T07:28:34;45.10;;;22.70;;
20637;SDS011;10478;49.004;8.470;2024-03-07T07:31:01;41.55;;;22.75;;
20637;SDS011;10478;49.004;8.470;2024-03-07T07:33:26;51.95;;;22.38;;
20637;SDS011;10478;49.004;8.470;2024-03-07T07:35:51;49.72;;;22.75;;
20637;SDS011;10478;49.004;8.470;2024-03-07T07:38:17;45.55;;;21.63;;
20637;SDS011;10478;49.004;8.470;2024-03-07T07:40:42;47.28;;;20.08;;
20637;SDS011;10478;49.004;8.470;2024-03-07T07:43:09;48.42;;;22.45;;
20637;SDS011;10478;49.004;8.470;2024-03-07T07:45:38;48.20;;;23.17;;
20637;SDS011;10478;49.004;8.470;2024-03-07T07:48:04;46.80;;;21.27;;
20637;SDS011;10478;49.004;8.470;2024-03-07T07:50:30;44.30;;;21.25;;
20637;SDS011;10478;49.004;8.470;2024-03-07T07:52:56;41.03;;;19.75;;
20637;SDS011;10478;49.004;8.470;2024-03-07T07:57:54;39.08;;;19.45;;
20637;SDS011;10478;49.004;8.470;2024-03-07T08:00:25;47.65;;;22.33;;
20637;SDS011;10478;49.004;8.470;2024-03-07T08:02:52;42.80;;;21.85;;
20637;SDS011;10478;49.004;8.470;2024-03-07T08:05:19;38.65;;;19.55;;
20637;SDS011;10478;49.004;8.470;2024-03-07T08:07:45;37.97;;;19.88;;
20637;SDS011;10478;49.004;8.470;2024-03-07T08:10:12;42.33;;;20.55;;
20637;SDS011;10478;49.004;8.470;2024-03-07T08:12:38;37.78;;;19.48;;
20637;SDS011;10478;49.004;8.470;2024-03-07T08:15:04;41.33;;;19.92;;
20637;SDS011;10478;49.004;8.470;2024-03-07T08:17:30;36.22;;;18.55;;
20637;SDS011;10478;49.004;8.470;2024-03-07T08:19:56;38.33;;;19.02;;
20637;SDS011;10478;49.004;8.470;2024-03-07T08:22:21;34.75;;;17.33;;
20637;SDS011;10478;49.004;8.470;2024-03-07T08:24:47;38.38;;;19.33;;
20637;SDS011;10478;49.004;8.470;2024-03-07T08:27:12;39.08;;;18.42;;
20637;SDS011;10478;49.004;8.470;2024-03-07T08:29:37;40.58;;;17.77;;
20637;SDS011;10478;49.004;8.470;2024-03-07T08:32:04;36.47;;;18.02;;
20637;SDS011;10478;49.004;8.470;2024-03-07T08:34:30;37.95;;;19.02;;
20637;SDS011;10478;49.004;8.470;2024-03-07T08:36:55;31.08;;;16.33;;
20637;SDS011;10478;49.004;8.470;2024-03-07T08:39:21;31.70;;;15.50;;
20637;SDS011;10478;49.004;8.470;2024-03-07T08:41:47;35.78;;;17.95;;
20637;SDS011;10478;49.004;8.470;2024-03-07T08:44:12;37.03;;;16.80;;
20637;SDS011;10478;49.004;8.470;2024-03-07T08:46:38;34.13;;;17.75;;
20637;SDS011;10478;49.004;8.470;2024-03-07T08:49:04;37.08;;;17.27;;
20637;SDS011;10478;49.004;8.470;2024-03-07T08:51:30;34.00;;;17.52;;
20637;SDS011;10478;49.004;8.470;2024-03-07T08:53:55;31.17;;;16.30;;
20637;SDS011;10478;49.004;8.470;2024-03-07T08:56:21;35.22;;;16.88;;
20637;SDS011;10478;49.004;8.470;2024-03-07T08:58:47;36.60;;;17.50;;
20637;SDS011;10478;49.004;8.470;2024-03-07T09:01:12;32.88;;;16.55;;
20637;SDS011;10478;49.004;8.470;2024-03-07T09:03:37;36.10;;;17.52;;
20637;SDS011;10478;49.004;8.470;2024-03-07T09:06:03;33.28;;;16.70;;
20637;SDS011;10478;49.004;8.470;2024-03-07T09:08:29;34.15;;;16.08;;
20637;SDS011;10478;49.004;8.470;2024-03-07T09:10:55;37.17;;;17.02;;
20637;SDS011;10478;49.004;8.470;2024-03-07T09:13:21;34.22;;;16.05;;
20637;SDS011;10478;49.004;8.470;2024-03-07T09:15:46;30.60;;;16.25;;
20637;SDS011;10478;49.004;8.470;2024-03-07T09:18:12;32.75;;;17.77;;
20637;SDS011;10478;49.004;8.470;2024-03-07T09:20:37;34.42;;;17.60;;
20637;SDS011;10478;49.004;8.470;2024-03-07T09:23:03;36.38;;;18.00;;
20637;SDS011;10478;49.004;8.470;2024-03-07T09:25:28;33.25;;;17.08;;
20637;SDS011;10478;49.004;8.470;2024-03-07T09:27:57;31.50;;;17.52;;
20637;SDS011;10478;49.004;8.470;2024-03-07T09:30:25;33.78;;;17.15;;
20637;SDS011;10478;49.004;8.470;2024-03-07T09:32:52;37.65;;;18.33;;
20637;SDS011;10478;49.004;8.470;2024-03-07T09:35:20;36.05;;;17.65;;
20637;SDS011;10478;49.004;8.470;2024-03-07T09:37:45;39.83;;;19.85;;
20637;SDS011;10478;49.004;8.470;2024-03-07T09:40:11;35.75;;;17.48;;
20637;SDS011;10478;49.004;8.470;2024-03-07T09:42:43;35.45;;;18.35;;
20637;SDS011;10478;49.004;8.470;2024-03-07T09:45:19;38.03;;;18.80;;
20637;SDS011;10478;49.004;8.470;2024-03-07T09:47:46;29.98;;;16.48;;
20637;SDS011;10478;49.004;8.470;2024-03-07T09:50:13;38.85;;;17.92;;
20637;SDS011;10478;49.004;8.470;2024-03-07T09:52:40;37.83;;;17.25;;
20637;SDS011;10478;49.004;8.470;2024-03-07T09:55:06;35.85;;;17.65;;
20637;SDS011;10478;49.004;8.470;2024-03-07T09:57:33;35.17;;;16.25;;
20637;SDS011;10478;49.004;8.470;2024-03-07T09:59:59;35.25;;;17.92;;
20637;SDS011;10478;49.004;8.470;2024-03-07T10:02:26;29.50;;;17.23;;
20637;SDS011;10478;49.004;8.470;2024-03-07T10:04:53;39.33;;;17.88;;
20637;SDS011;10478;49.004;8.470;2024-03-07T10:07:18;40.13;;;18.17;;
20637;SDS011;10478;49.004;8.470;2024-03-07T10:09:44;44.15;;;19.60;;
20637;SDS011;10478;49.004;8.470;2024-03-07T10:12:09;37.15;;;19.17;;
20637;SDS011;10478;49.004;8.470;2024-03-07T10:14:37;34.72;;;17.23;;
20637;SDS011;10478;49.004;8.470;2024-03-07T10:17:03;35.42;;;17.75;;
20637;SDS011;10478;49.004;8.470;2024-03-07T10:19:31;34.67;;;17.88;;
20637;SDS011;10478;49.004;8.470;2024-03-07T10:21:56;33.22;;;17.67;;
20637;SDS011;10478;49.004;8.470;2024-03-07T10:24:26;35.55;;;18.00;;
20637;SDS011;10478;49.004;8.470;2024-03-07T10:26:52;35.55;;;18.33;;
20637;SDS011;10478;49.004;8.470;2024-03-07T10:29:21;36.97;;;18.83;;
20637;SDS011;10478;49.004;8.470;2024-03-07T10:31:48;32.75;;;17.35;;
20637;SDS011;10478;49.004;8.470;2024-03-07T10:34:14;40.92;;;20.55;;
20637;SDS011;10478;49.004;8.470;2024-03-07T10:36:42;41.35;;;19.92;;
20637;SDS011;10478;49.004;8.470;2024-03-07T10:39:08;38.80;;;19.08;;
20637;SDS011;10478;49.004;8.470;2024-03-07T10:41:44;37.35;;;19.45;;
20637;SDS011;10478;49.004;8.470;2024-03-07T10:44:11;35.42;;;19.00;;
20637;SDS011;10478;49.004;8.470;2024-03-07T10:46:57;41.00;;;20.10;;
20637;SDS011;10478;49.004;8.470;2024-03-07T10:49:28;37.72;;;19.10;;
20637;SDS011;10478;49.004;8.470;2024-03-07T10:52:05;37.97;;;19.13;;
20637;SDS011;10478;49.004;8.470;2024-03-07T10:57:28;38.72;;;19.63;;
20637;SDS011;10478;49.004;8.470;2024-03-07T10:59:59;44.38;;;22.08;;
20637;SDS011;10478;49.004;8.470;2024-03-07T11:02:33;42.63;;;20.80;;
20637;SDS011;10478;49.004;8.470;2024-03-07T11:05:03;46.30;;;20.10;;
20637;SDS011;10478;49.004;8.470;2024-03-07T11:07:33;40.65;;;21.40;;
20637;SDS011;10478;49.004;8.470;2024-03-07T11:09:58;38.78;;;20.98;;
20637;SDS011;10478;49.004;8.470;2024-03-07T11:12:25;45.38;;;21.40;;
20637;SDS011;10478;49.004;8.470;2024-03-07T11:14:52;40.83;;;19.88;;
20637;SDS011;10478;49.004;8.470;2024-03-07T11:17:19;39.80;;;20.55;;
20637;SDS011;10478;49.004;8.470;2024-03-07T11:19:45;43.58;;;21.63;;
20637;SDS011;10478;49.004;8.470;2024-03-07T11:22:13;45.17;;;20.88;;
20637;SDS011;10478;49.004;8.470;2024-03-07T11:24:59;35.42;;;18.90;;
20637;SDS011;10478;49.004;8.470;2024-03-07T11:27:26;38.25;;;18.73;;
20637;SDS011;10478;49.004;8.470;2024-03-07T11:29:51;38.25;;;19.52;;
20637;SDS011;10478;49.004;8.470;2024-03-07T11:32:17;38.38;;;18.90;;
20637;SDS011;10478;49.004;8.470;2024-03-07T11:34:45;34.42;;;18.83;;
20637;SDS011;10478;49.004;8.470;2024-03-07T11:37:16;37.03;;;19.23;;
20637;SDS011;10478;49.004;8.470;2024-03-07T11:39:46;35.65;;;18.58;;
20637;SDS011;10478;49.004;8.470;2024-03-07T11:45:06;39.38;;;18.98;;
20637;SDS011;10478;49.004;8.470;2024-03-07T11:47:38;42.55;;;20.77;;
20637;SDS011;10478;49.004;8.470;2024-03-07T11:50:07;34.90;;;18.70;;
20637;SDS011;10478;49.004;8.470;2024-03-07T11:52:36;38.33;;;20.10;;
20637;SDS011;10478;49.004;8.470;2024-03-07T11:55:03;37.63;;;20.17;;
20637;SDS011;10478;49.004;8.470;2024-03-07T11:57:29;39.78;;;19.65;;
20637;SDS011;10478;49.004;8.470;2024-03-07T12:00:00;41.78;;;19.42;;
20637;SDS011;10478;49.004;8.470;2024-03-07T12:02:33;35.95;;;20.27;;
20637;SDS011;10478;49.004;8.470;2024-03-07T12:04:58;38.67;;;19.90;;
20637;SDS011;10478;49.004;8.470;2024-03-07T12:07:23;37.70;;;19.75;;
20637;SDS011;10478;49.004;8.470;2024-03-07T12:09:49;34.40;;;17.80;;
20637;SDS011;10478;49.004;8.470;2024-03-07T12:12:19;43.70;;;20.75;;
20637;SDS011;10478;49.004;8.470;2024-03-07T12:14:46;46.90;;;19.02;;
20637;SDS011;10478;49.004;8.470;2024-03-07T12:17:12;40.63;;;18.15;;
20637;SDS011;10478;49.004;8.470;2024-03-07T12:19:39;37.13;;;19.60;;
20637;SDS011;10478;49.004;8.470;2024-03-07T12:22:07;40.58;;;21.13;;
20637;SDS011;10478;49.004;8.470;2024-03-07T12:24:37;32.92;;;17.75;;
20637;SDS011;10478;49.004;8.470;2024-03-07T12:29:40;34.72;;;18.65;;
20637;SDS011;10478;49.004;8.470;2024-03-07T12:32:07;36.33;;;19.20;;
20637;SDS011;10478;49.004;8.470;2024-03-07T12:34:36;43.75;;;18.92;;
20637;SDS011;10478;49.004;8.470;2024-03-07T12:37:05;36.45;;;18.88;;
20637;SDS011;10478;49.004;8.470;2024-03-07T12:39:34;34.97;;;18.77;;
20637;SDS011;10478;49.004;8.470;2024-03-07T12:42:11;38.17;;;19.35;;
20637;SDS011;10478;49.004;8.470;2024-03-07T12:44:42;42.95;;;20.30;;
20637;SDS011;10478;49.004;8.470;2024-03-07T12:47:10;39.28;;;20.55;;
20637;SDS011;10478;49.004;8.470;2024-03-07T12:49:36;36.50;;;18.73;;
20637;SDS011;10478;49.004;8.470;2024-03-07T12:52:02;37.85;;;18.80;;
20637;SDS011;10478;49.004;8.470;2024-03-07T12:54:27;35.80;;;19.85;;
20637;SDS011;10478;49.004;8.470;2024-03-07T12:56:53;42.10;;;19.90;;
20637;SDS011;10478;49.004;8.470;2024-03-07T12:59:18;38.20;;;19.88;;
20637;SDS011;10478;49.004;8.470;2024-03-07T13:01:48;47.25;;;19.52;;
20637;SDS011;10478;49.004;8.470;2024-03-07T13:04:14;40.35;;;18.92;;
20637;SDS011;10478;49.004;8.470;2024-03-07T13:06:40;34.58;;;18.48;;
20637;SDS011;10478;49.004;8.470;2024-03-07T13:09:11;33.03;;;18.40;;
20637;SDS011;10478;49.004;8.470;2024-03-07T13:11:39;36.78;;;19.45;;
20637;SDS011;10478;49.004;8.470;2024-03-07T13:14:12;37.83;;;19.27;;
20637;SDS011;10478;49.004;8.470;2024-03-07T13:16:38;36.70;;;20.92;;
20637;SDS011;10478;49.004;8.470;2024-03-07T13:19:04;31.48;;;17.10;;
20637;SDS011;10478;49.004;8.470;2024-03-07T13:21:33;37.75;;;20.35;;
20637;SDS011;10478;49.004;8.470;2024-03-07T13:24:00;33.08;;;17.48;;
20637;SDS011;10478;49.004;8.470;2024-03-07T13:26:25;38.28;;;18.98;;
20637;SDS011;10478;49.004;8.470;2024-03-07T13:28:55;36.13;;;17.73;;
20637;SDS011;10478;49.004;8.470;2024-03-07T13:31:20;39.83;;;17.08;;
20637;SDS011;10478;49.004;8.470;2024-03-07T13:33:45;41.88;;;19.08;;
20637;SDS011;10478;49.004;8.470;2024-03-07T13:36:11;34.42;;;17.33;;
20637;SDS011;10478;49.004;8.470;2024-03-07T13:38:39;36.33;;;18.13;;
20637;SDS011;10478;49.004;8.470;2024-03-07T13:41:04;35.65;;;17.33;;
20637;SDS011;10478;49.004;8.470;2024-03-07T13:43:30;28.00;;;16.15;;
20637;SDS011;10478;49.004;8.470;2024-03-07T13:45:55;36.78;;;16.90;;
20637;SDS011;10478;49.004;8.470;2024-03-07T13:48:21;38.25;;;18.60;;
20637;SDS011;10478;49.004;8.470;2024-03-07T13:50:47;33.83;;;17.80;;
20637;SDS011;10478;49.004;8.470;2024-03-07T13:53:14;39.78;;;18.17;;
20637;SDS011;10478;49.004;8.470;2024-03-07T14:01:47;43.60;;;18.88;;
20637;SDS011;10478;49.004;8.470;2024-03-07T14:07:22;39.17;;;17.88;;
20637;SDS011;10478;49.004;8.470;2024-03-07T14:21:19;36.07;;;18.03;;
20637;SDS011;10478;49.004;8.470;2024-03-07T14:24:05;34.13;;;17.70;;
20637;SDS011;10478;49.004;8.470;2024-03-07T14:29:47;39.53;;;18.20;;
20637;SDS011;10478;49.004;8.470;2024-03-07T14:32:16;40.88;;;18.98;;
20637;SDS011;10478;49.004;8.470;2024-03-07T14:34:47;33.03;;;16.95;;
20637;SDS011;10478;49.004;8.470;2024-03-07T14:37:26;38.00;;;18.00;;
20637;SDS011;10478;49.004;8.470;2024-03-07T14:39:56;33.72;;;16.80;;
20637;SDS011;10478;49.004;8.470;2024-03-07T14:42:35;34.65;;;17.77;;
20637;SDS011;10478;49.004;8.470;2024-03-07T14:45:01;32.50;;;16.42;;
20637;SDS011;10478;49.004;8.470;2024-03-07T14:47:32;37.13;;;17.73;;
20637;SDS011;10478;49.004;8.470;2024-03-07T14:49:58;36.40;;;17.60;;
20637;SDS011;10478;49.004;8.470;2024-03-07T14:52:23;31.48;;;16.30;;